Time;durP1;ratioP1;P1;durP2;ratioP2;P2;SDS_P1;SDS_P2;PMS_P1;PMS_P2;Temp;Humidity;BMP_temperature;BMP_pressure;BME280_temperature;BME280_humidity;BME280_pressure;Samples;Min_cycle;Max_cycle;Signal;HPM_P1;HPM_P2
2023/05/08 00:00:23;;;;;;;9.55;6.95;;;13.20;99.90;;;;;;5026205;28;20433;-72
2023/05/08 00:02:49;;;;;;;9.27;6.53;;;13.20;99.90;;;;;;5008728;28;20073;-72
2023/05/08 00:05:15;;;;;;;11.83;6.50;;;13.10;99.90;;;;;;5009808;28;20212;-72
2023/05/08 00:07:40;;;;;;;10.73;6.97;;;13.10;99.90;;;;;;5013404;28;20095;-72
2023/05/08 00:10:07;;;;;;;10.43;7.10;;;13.10;99.90;;;;;;5014446;28;20099;-72
2023/05/08 00:12:33;;;;;;;10.02;7.07;;;13.10;99.90;;;;;;5015676;28;20045;-72
2023/05/08 00:14:59;;;;;;;10.93;7.53;;;13.10;99.90;;;;;;5011886;28;20052;-72
2023/05/08 00:17:25;;;;;;;10.52;7.05;;;13.00;99.90;;;;;;5018048;28;20048;-72
2023/05/08 00:19:51;;;;;;;11.85;7.45;;;13.00;99.90;;;;;;5012454;28;20045;-72
2023/05/08 00:22:17;;;;;;;;;;;13.00;99.90;;;;;;5013910;28;20053;-72
2023/05/08 00:24:46;;;;;;;10.57;6.65;;;13.00;99.90;;;;;;5015006;28;19979;-72
2023/05/08 00:27:12;;;;;;;10.15;6.50;;;13.00;99.90;;;;;;5031490;22;20059;-72
2023/05/08 00:29:39;;;;;;;11.07;7.50;;;12.90;99.90;;;;;;5026773;28;20350;-72
2023/05/08 00:32:05;;;;;;;11.65;7.13;;;12.90;99.90;;;;;;5028932;28;20072;-72
2023/05/08 00:34:35;;;;;;;12.45;7.82;;;12.90;99.90;;;;;;4993867;28;20040;-72
2023/05/08 00:37:01;;;;;;;10.80;7.45;;;12.90;99.90;;;;;;5005551;28;20296;-73
2023/05/08 00:39:27;;;;;;;11.68;7.60;;;12.90;99.90;;;;;;5007757;28;20111;-72
2023/05/08 00:41:53;;;;;;;12.13;7.20;;;12.90;99.90;;;;;;5005333;28;20499;-72
2023/05/08 00:44:18;;;;;;;10.67;6.50;;;12.80;99.90;;;;;;5006027;28;20135;-72
2023/05/08 00:46:48;;;;;;;11.33;7.60;;;12.80;99.90;;;;;;5014757;28;20386;-72
2023/05/08 00:49:15;;;;;;;12.13;7.22;;;12.80;99.90;;;;;;5002839;28;20045;-72
2023/05/08 00:51:43;;;;;;;12.48;7.60;;;12.80;99.90;;;;;;5011167;28;20491;-72
2023/05/08 00:54:12;;;;;;;11.10;7.72;;;12.80;99.90;;;;;;5013610;28;20476;-73
2023/05/08 00:56:37;;;;;;;11.88;7.65;;;12.70;99.90;;;;;;4994666;28;20494;-72
2023/05/08 00:59:08;;;;;;;11.85;7.70;;;12.70;99.90;;;;;;5018634;28;20045;-72
2023/05/08 01:01:36;;;;;;;11.43;7.47;;;12.70;99.90;;;;;;5001533;28;20046;-72
2023/05/08 01:04:05;;;;;;;14.68;7.93;;;12.70;99.90;;;;;;5021126;28;20471;-72
2023/05/08 01:06:32;;;;;;;11.23;7.68;;;12.60;99.90;;;;;;5009936;28;20133;-72
2023/05/08 01:08:59;;;;;;;11.82;7.85;;;12.60;99.90;;;;;;5015675;28;20040;-72
2023/05/08 01:11:39;;;;;;;14.35;8.48;;;12.60;99.90;;;;;;5009561;28;20478;-72
2023/05/08 01:14:21;;;;;;;11.40;7.78;;;12.60;99.90;;;;;;5001552;28;20049;-71
2023/05/08 01:17:10;;;;;;;10.88;7.75;;;12.60;99.90;;;;;;5017680;28;20382;-72
2023/05/08 01:20:00;;;;;;;11.93;7.82;;;12.60;99.90;;;;;;5023220;28;20449;-72
2023/05/08 01:23:04;;;;;;;11.75;7.28;;;12.50;99.90;;;;;;4999454;28;20568;-73
2023/05/08 01:25:36;;;;;;;12.77;7.72;;;12.50;99.90;;;;;;5008473;28;20041;-72
2023/05/08 01:28:11;;;;;;;14.00;8.50;;;12.50;99.90;;;;;;5000513;28;20033;-72
2023/05/08 01:31:08;;;;;;;14.02;8.48;;;12.50;99.90;;;;;;5013392;28;20042;-72
2023/05/08 01:33:45;;;;;;;13.43;7.82;;;12.50;99.90;;;;;;4968950;28;20144;-72
2023/05/08 01:36:23;;;;;;;11.43;7.80;;;12.40;99.90;;;;;;5006515;28;20033;-72
2023/05/08 01:39:07;;;;;;;14.38;8.50;;;12.40;99.90;;;;;;5019544;28;20067;-72
2023/05/08 01:41:35;;;;;;;11.60;7.55;;;12.40;99.90;;;;;;5005573;28;20042;-72
2023/05/08 01:44:20;;;;;;;17.80;9.68;;;12.50;99.90;;;;;;5019000;28;20041;-72
2023/05/08 01:46:49;;;;;;;13.70;8.40;;;12.40;99.90;;;;;;5018217;28;20038;-72
2023/05/08 01:49:28;;;;;;;12.68;8.05;;;12.30;99.90;;;;;;5015024;28;20073;-72
2023/05/08 01:52:09;;;;;;;12.35;8.00;;;12.40;99.90;;;;;;5019531;28;20037;-72
2023/05/08 01:55:04;;;;;;;12.98;8.73;;;12.30;99.90;;;;;;5023694;28;20309;-72
2023/05/08 01:57:35;;;;;;;17.90;9.23;;;12.30;99.90;;;;;;5012692;28;20049;-72
2023/05/08 02:00:03;;;;;;;14.32;9.43;;;12.30;99.90;;;;;;5027606;28;20478;-72
2023/05/08 02:02:31;;;;;;;14.02;8.73;;;12.30;99.90;;;;;;5022590;28;20351;-72
2023/05/08 02:04:57;;;;;;;14.10;8.77;;;12.20;99.90;;;;;;5018316;28;20099;-73
2023/05/08 02:07:24;;;;;;;13.88;9.18;;;12.20;99.90;;;;;;5022607;28;20375;-73
2023/05/08 02:09:51;;;;;;;11.15;7.78;;;12.20;99.90;;;;;;5011091;28;20066;-77
2023/05/08 02:12:20;;;;;;;15.65;8.95;;;12.20;99.90;;;;;;5019760;28;20094;-75
2023/05/08 02:14:48;;;;;;;13.70;8.50;;;12.20;99.90;;;;;;5005776;28;20484;-73
2023/05/08 02:17:16;;;;;;;12.35;8.05;;;12.20;99.90;;;;;;5013050;28;20045;-74
2023/05/08 02:19:43;;;;;;;12.52;8.30;;;12.10;99.90;;;;;;5002992;28;20446;-73
2023/05/08 02:22:09;;;;;;;14.05;9.18;;;12.10;99.90;;;;;;5025560;28;20120;-73
2023/05/08 02:24:37;;;;;;;14.15;9.55;;;12.10;99.90;;;;;;5009937;28;20038;-73
2023/05/08 02:27:04;;;;;;;13.63;8.98;;;12.10;99.90;;;;;;5011785;28;20125;-73
2023/05/08 02:29:31;;;;;;;14.95;9.20;;;12.10;99.90;;;;;;5011064;28;20045;-73
2023/05/08 02:31:59;;;;;;;14.00;8.57;;;12.00;99.90;;;;;;5009978;28;20041;-73
2023/05/08 02:34:27;;;;;;;16.77;9.05;;;12.00;99.90;;;;;;5015337;28;20044;-73
2023/05/08 02:36:54;;;;;;;14.80;8.80;;;12.10;99.90;;;;;;5024199;28;20145;-73
2023/05/08 02:39:24;;;;;;;13.85;8.13;;;12.00;99.90;;;;;;5018676;28;20498;-73
2023/05/08 02:41:52;;;;;;;13.60;9.05;;;12.00;99.90;;;;;;5012115;28;20440;-73
2023/05/08 02:44:18;;;;;;;14.05;9.25;;;12.00;99.90;;;;;;5012004;28;20069;-73
2023/05/08 02:46:59;;;;;;;16.13;9.07;;;11.90;99.90;;;;;;5023429;28;20096;-73
2023/05/08 02:49:37;;;;;;;13.27;9.07;;;12.00;99.90;;;;;;5012492;28;20041;-73
2023/05/08 02:52:34;;;;;;;13.20;8.55;;;12.00;99.90;;;;;;5026355;28;20426;-73
2023/05/08 02:55:11;;;;;;;13.07;8.40;;;11.90;99.90;;;;;;5011193;28;20555;-73
2023/05/08 02:57:49;;;;;;;14.57;8.70;;;11.90;99.90;;;;;;5014227;28;20126;-72
2023/05/08 03:00:21;;;;;;;15.38;8.85;;;11.80;99.90;;;;;;5002684;28;20140;-73
2023/05/08 03:02:53;;;;;;;12.40;8.18;;;11.80;99.90;;;;;;5010718;28;20105;-72
2023/05/08 03:05:23;;;;;;;13.98;8.80;;;11.90;99.90;;;;;;5016685;28;20029;-72
2023/05/08 03:07:53;;;;;;;13.68;8.55;;;11.90;99.90;;;;;;5027760;28;20042;-73
2023/05/08 03:10:22;;;;;;;12.65;8.35;;;11.80;99.90;;;;;;5023110;28;20040;-72
2023/05/08 03:12:52;;;;;;;15.77;8.82;;;11.80;99.90;;;;;;5028433;28;20045;-72
2023/05/08 03:15:32;;;;;;;14.52;9.48;;;11.80;99.90;;;;;;5019411;28;20418;-72
2023/05/08 03:18:05;;;;;;;13.23;8.57;;;11.70;99.90;;;;;;5003326;28;20037;-73
2023/05/08 03:20:36;;;;;;;11.77;8.57;;;11.70;99.90;;;;;;5028621;28;21516;-74
2023/05/08 03:23:03;;;;;;;12.30;8.32;;;11.70;99.90;;;;;;5017684;28;20184;-74
2023/05/08 03:25:31;;;;;;;15.38;9.07;;;11.70;99.90;;;;;;5003341;28;20028;-75
2023/05/08 03:27:58;;;;;;;14.52;8.85;;;11.70;99.90;;;;;;5019938;28;20419;-75
2023/05/08 03:30:26;;;;;;;12.73;8.00;;;11.70;99.90;;;;;;5023613;28;20479;-74
2023/05/08 03:32:53;;;;;;;14.05;8.80;;;11.60;99.90;;;;;;5015598;28;20045;-72
2023/05/08 03:35:20;;;;;;;15.43;9.10;;;11.70;99.90;;;;;;5010497;28;20073;-73
2023/05/08 03:37:48;;;;;;;13.20;8.43;;;11.60;99.90;;;;;;5013979;28;20179;-72
2023/05/08 03:40:14;;;;;;;14.77;8.85;;;11.60;99.90;;;;;;5013106;28;20037;-72
2023/05/08 03:42:41;;;;;;;13.98;8.60;;;11.60;99.90;;;;;;4997024;28;20136;-72
2023/05/08 03:45:08;;;;;;;;;;;11.70;99.90;;;;;;5015256;28;20045;-72
2023/05/08 03:47:36;;;;;;;14.18;8.57;;;11.60;99.90;;;;;;5017017;28;19917;-73
2023/05/08 03:50:03;;;;;;;12.60;8.32;;;11.60;99.90;;;;;;5014408;28;20050;-72
2023/05/08 03:52:31;;;;;;;13.57;9.50;;;11.70;99.90;;;;;;5024775;28;20059;-73
2023/05/08 03:55:00;;;;;;;15.27;9.75;;;11.60;99.90;;;;;;5023998;28;20467;-72
2023/05/08 03:57:30;;;;;;;14.35;9.40;;;11.60;99.90;;;;;;5007046;28;20068;-73
2023/05/08 04:00:32;;;;;;;14.77;9.38;;;11.60;99.90;;;;;;5013752;28;20038;-75
2023/05/08 04:03:20;;;;;;;13.25;8.32;;;11.60;99.90;;;;;;5012784;28;20115;-73
2023/05/08 04:05:56;;;;;;;;;;;11.60;99.90;;;;;;5021964;28;20108;-73
2023/05/08 04:08:27;;;;;;;15.73;8.75;;;11.60;99.90;;;;;;5010937;28;19925;-72
2023/05/08 04:11:08;;;;;;;14.48;8.50;;;11.50;99.90;;;;;;5016730;28;20038;-72
2023/05/08 04:13:42;;;;;;;14.48;8.85;;;11.50;99.90;;;;;;5010072;28;20037;-72
2023/05/08 04:16:26;;;;;;;15.05;8.98;;;11.50;99.90;;;;;;5019049;28;20125;-73
2023/05/08 04:19:00;;;;;;;15.45;9.90;;;11.40;99.90;;;;;;5003692;28;20553;-73
2023/05/08 04:21:27;;;;;;;18.20;9.90;;;11.40;99.90;;;;;;5019817;28;20036;-73
2023/05/08 04:23:58;;;;;;;13.68;8.70;;;11.40;99.90;;;;;;5019138;28;20041;-72
2023/05/08 04:26:27;;;;;;;14.25;8.73;;;11.40;99.90;;;;;;5005737;28;20041;-73
2023/05/08 04:28:56;;;;;;;14.55;9.23;;;11.40;99.90;;;;;;5010128;28;20050;-73
2023/05/08 04:31:24;;;;;;;14.10;9.15;;;11.40;99.90;;;;;;5015320;28;20119;-72
2023/05/08 04:33:53;;;;;;;15.63;9.68;;;11.40;99.90;;;;;;5028159;28;20069;-75
2023/05/08 04:36:19;;;;;;;;;;;11.40;99.90;;;;;;5028761;28;20053;-72
2023/05/08 04:38:44;;;;;;;12.82;8.10;;;11.40;99.90;;;;;;5016312;28;19950;-74
2023/05/08 04:41:10;;;;;;;13.77;8.23;;;11.40;99.90;;;;;;5012291;28;20116;-73
2023/05/08 04:43:36;;;;;;;15.98;8.65;;;11.40;99.90;;;;;;5012295;28;20042;-72
2023/05/08 04:46:04;;;;;;;12.70;8.18;;;11.40;99.90;;;;;;5031359;28;20055;-72
2023/05/08 04:48:32;;;;;;;13.88;8.77;;;11.40;99.90;;;;;;5027766;28;20036;-73
2023/05/08 04:50:57;;;;;;;13.50;8.23;;;11.50;99.90;;;;;;5026469;28;20125;-72
2023/05/08 04:53:23;;;;;;;12.25;8.20;;;11.40;99.90;;;;;;5010548;28;20098;-73
2023/05/08 04:55:49;;;;;;;13.63;8.63;;;11.40;99.90;;;;;;5016985;28;20136;-74
2023/05/08 04:58:16;;;;;;;13.27;8.30;;;11.50;99.90;;;;;;5026180;28;20060;-73
2023/05/08 05:00:42;;;;;;;14.77;8.75;;;11.40;99.90;;;;;;4996956;28;20285;-73
2023/05/08 05:03:08;;;;;;;14.17;8.67;;;11.50;99.90;;;;;;5009139;28;20126;-73
2023/05/08 05:05:37;;;;;;;13.13;7.97;;;11.50;99.90;;;;;;5015537;28;20128;-74
2023/05/08 05:08:03;;;;;;;15.57;8.65;;;11.40;99.90;;;;;;5019655;28;20053;-73
2023/05/08 05:10:28;;;;;;;13.20;8.63;;;11.50;99.90;;;;;;5017734;28;20043;-73
2023/05/08 05:12:54;;;;;;;12.83;7.93;;;11.50;99.90;;;;;;5024777;28;20203;-74
2023/05/08 05:15:20;;;;;;;14.40;9.35;;;11.50;99.90;;;;;;5034217;28;20040;-74
2023/05/08 05:17:45;;;;;;;11.80;7.95;;;11.60;99.90;;;;;;5024264;28;20093;-74
2023/05/08 05:20:12;;;;;;;11.18;7.32;;;11.60;99.90;;;;;;5017418;28;20113;-73
2023/05/08 05:22:37;;;;;;;12.27;8.27;;;11.60;99.90;;;;;;5010925;28;20049;-73
2023/05/08 05:25:04;;;;;;;11.60;7.73;;;11.60;99.90;;;;;;5012389;28;20042;-74
2023/05/08 05:27:32;;;;;;;13.77;8.38;;;11.60;99.90;;;;;;5018271;28;20833;-74
2023/05/08 05:29:58;;;;;;;14.57;8.70;;;11.70;99.90;;;;;;4993053;28;20399;-74
2023/05/08 05:32:26;;;;;;;13.43;8.47;;;11.70;99.90;;;;;;5030756;28;20120;-73
2023/05/08 05:34:52;;;;;;;13.38;8.02;;;11.70;99.90;;;;;;5033947;28;20044;-74
2023/05/08 05:37:18;;;;;;;;;;;11.60;99.90;;;;;;5024643;28;20341;-73
2023/05/08 05:39:44;;;;;;;11.60;7.30;;;11.70;99.90;;;;;;5021789;28;20465;-73
2023/05/08 05:42:09;;;;;;;14.38;8.07;;;11.90;99.90;;;;;;5000079;28;20030;-73
2023/05/08 05:44:38;;;;;;;11.50;7.45;;;11.80;99.90;;;;;;5001722;28;20033;-74
2023/05/08 05:47:04;;;;;;;11.27;7.13;;;11.90;99.90;;;;;;5012585;28;20092;-74
2023/05/08 05:49:35;;;;;;;12.25;7.55;;;11.70;99.90;;;;;;5019247;28;20291;-73
2023/05/08 05:52:01;;;;;;;13.15;8.30;;;11.90;99.90;;;;;;5009992;28;20169;-73
2023/05/08 05:54:27;;;;;;;11.93;8.47;;;11.90;99.90;;;;;;5018638;28;20216;-73
2023/05/08 05:56:52;;;;;;;12.17;8.20;;;12.00;99.90;;;;;;5002596;28;20831;-74
2023/05/08 05:59:18;;;;;;;12.60;7.83;;;12.00;99.90;;;;;;5017146;28;20681;-74
2023/05/08 06:01:44;;;;;;;11.83;7.63;;;12.00;99.90;;;;;;5005482;28;20092;-73
2023/05/08 06:04:10;;;;;;;12.65;8.43;;;12.10;99.90;;;;;;5019969;28;20295;-73
2023/05/08 06:06:35;;;;;;;14.87;8.20;;;12.10;99.90;;;;;;5016435;28;20045;-75
2023/05/08 06:09:05;;;;;;;12.67;8.07;;;12.20;99.90;;;;;;5012408;28;20286;-76
2023/05/08 06:11:31;;;;;;;12.13;7.75;;;12.20;99.90;;;;;;5012563;28;20084;-76
2023/05/08 06:13:57;;;;;;;11.45;7.80;;;12.30;99.90;;;;;;5022362;28;20061;-77
2023/05/08 06:16:23;;;;;;;10.90;7.20;;;12.30;99.90;;;;;;4990069;28;20210;-78
2023/05/08 06:18:49;;;;;;;11.82;7.90;;;12.40;99.90;;;;;;5024103;28;20333;-77
2023/05/08 06:21:15;;;;;;;11.63;7.65;;;12.40;99.90;;;;;;5021779;28;21428;-73
2023/05/08 06:23:41;;;;;;;14.48;8.35;;;12.40;99.90;;;;;;5015607;28;20033;-74
2023/05/08 06:26:07;;;;;;;12.70;8.35;;;12.40;99.90;;;;;;5011023;28;20123;-74
2023/05/08 06:28:38;;;;;;;13.05;8.35;;;12.50;99.90;;;;;;5091394;22;20143;-87
2023/05/08 06:31:10;;;;;;;13.05;8.40;;;12.50;99.90;;;;;;5033979;28;20536;-87
2023/05/08 06:33:38;;;;;;;13.52;7.90;;;12.40;99.90;;;;;;5033241;28;20393;-88
2023/05/08 06:36:05;;;;;;;12.43;8.43;;;12.40;99.90;;;;;;5021120;28;20033;-88
2023/05/08 06:38:30;;;;;;;;;;;12.40;99.90;;;;;;5013259;28;20028;-87
2023/05/08 06:40:59;;;;;;;12.45;7.78;;;12.40;99.90;;;;;;5015143;28;19917;-87
2023/05/08 06:43:34;;;;;;;12.23;7.65;;;12.30;99.90;;;;;;5011900;28;20147;-88
2023/05/08 06:46:00;;;;;;;12.68;7.68;;;12.50;99.90;;;;;;5010847;28;20088;-88
2023/05/08 06:48:27;;;;;;;14.27;7.88;;;12.40;99.90;;;;;;5029726;28;20042;-88
2023/05/08 06:50:54;;;;;;;11.50;8.23;;;12.40;99.90;;;;;;5008959;28;20054;-88
2023/05/08 06:53:19;;;;;;;;;;;12.50;99.90;;;;;;5015887;28;20597;-88
2023/05/08 06:55:45;;;;;;;12.25;7.90;;;12.50;99.90;;;;;;5006738;28;19964;-88
2023/05/08 06:58:14;;;;;;;12.07;7.47;;;12.60;99.90;;;;;;5014113;28;20154;-88
2023/05/08 07:00:42;;;;;;;14.63;7.72;;;12.70;99.90;;;;;;5012886;28;20037;-88
2023/05/08 07:03:08;;;;;;;13.20;8.40;;;12.80;99.90;;;;;;5016597;28;20109;-88
2023/05/08 07:05:34;;;;;;;12.05;8.10;;;12.80;99.90;;;;;;5011305;28;20575;-88
2023/05/08 07:07:59;;;;;;;13.40;8.43;;;12.90;99.90;;;;;;4998636;28;20519;-88
2023/05/08 07:10:25;;;;;;;13.57;8.33;;;13.00;99.90;;;;;;5003146;28;20068;-88
2023/05/08 07:12:51;;;;;;;13.20;7.70;;;13.00;99.90;;;;;;5013564;28;20049;-88
2023/05/08 07:15:16;;;;;;;14.52;8.48;;;13.00;99.90;;;;;;5010182;28;20057;-88
2023/05/08 07:17:45;;;;;;;14.65;9.05;;;13.00;99.90;;;;;;5035987;28;20047;-88
2023/05/08 07:20:14;;;;;;;11.40;7.85;;;13.10;99.90;;;;;;5027720;28;20033;-88
2023/05/08 07:22:42;;;;;;;10.48;7.25;;;13.10;99.90;;;;;;5026217;28;20124;-89
2023/05/08 07:25:08;;;;;;;15.15;8.35;;;13.20;99.90;;;;;;5027457;28;20144;-88
2023/05/08 07:27:37;;;;;;;12.57;7.55;;;13.30;99.90;;;;;;5013070;28;20061;-88
2023/05/08 07:30:06;;;;;;;12.40;7.82;;;13.40;99.90;;;;;;5034945;28;20427;-88
2023/05/08 07:32:32;;;;;;;13.02;7.85;;;13.50;99.90;;;;;;5030064;28;20037;-88
2023/05/08 07:35:02;;;;;;;10.82;7.55;;;13.50;99.90;;;;;;5030133;28;20049;-88
2023/05/08 07:37:28;;;;;;;14.18;9.02;;;13.60;99.90;;;;;;5016420;28;20670;-88
2023/05/08 07:39:57;;;;;;;13.18;8.82;;;13.70;99.90;;;;;;5027098;28;20576;-88
2023/05/08 07:42:25;;;;;;;13.27;8.25;;;13.70;99.90;;;;;;5022165;28;22209;-90
2023/05/08 07:44:51;;;;;;;13.13;8.40;;;13.80;99.90;;;;;;5019203;28;20034;-89
2023/05/08 07:47:20;;;;;;;12.47;7.87;;;13.90;99.90;;;;;;5035566;22;20576;-88
2023/05/08 07:49:48;;;;;;;12.00;8.27;;;13.90;99.90;;;;;;5020833;28;20377;-88
2023/05/08 07:52:17;;;;;;;15.68;8.50;;;13.90;99.90;;;;;;5028042;28;20037;-88
2023/05/08 07:54:43;;;;;;;12.88;8.77;;;14.10;99.90;;;;;;5025484;28;20315;-88
2023/05/08 07:57:11;;;;;;;13.73;7.67;;;14.20;99.90;;;;;;5008543;28;20080;-88
2023/05/08 07:59:40;;;;;;;11.57;7.43;;;14.30;99.90;;;;;;5006841;28;20445;-90
2023/05/08 08:02:09;;;;;;;16.85;9.65;;;14.40;99.90;;;;;;5008817;28;20141;-88
2023/05/08 08:04:34;;;;;;;12.02;7.45;;;14.50;99.90;;;;;;5010585;28;20034;-88
2023/05/08 08:07:03;;;;;;;16.50;8.67;;;14.50;99.90;;;;;;5007433;28;20095;-88
2023/05/08 08:09:32;;;;;;;12.98;8.20;;;14.60;99.90;;;;;;5004539;28;20812;-88
2023/05/08 08:12:00;;;;;;;13.85;8.50;;;14.70;99.90;;;;;;5017994;28;20096;-89
2023/05/08 08:14:26;;;;;;;13.27;8.60;;;14.80;99.90;;;;;;5026556;28;20120;-89
2023/05/08 08:16:55;;;;;;;14.15;8.52;;;14.80;99.90;;;;;;5004590;28;20457;-88
2023/05/08 08:19:24;;;;;;;13.45;8.43;;;14.80;99.90;;;;;;5032557;28;20057;-88
2023/05/08 08:21:52;;;;;;;13.98;8.40;;;14.90;99.90;;;;;;5023642;28;20077;-88
2023/05/08 08:24:19;;;;;;;11.75;8.35;;;15.00;99.90;;;;;;5020932;28;20076;-88
2023/05/08 08:26:48;;;;;;;11.93;8.25;;;15.00;99.90;;;;;;5005634;28;20536;-89
2023/05/08 08:29:20;;;;;;;14.18;8.32;;;15.00;99.90;;;;;;5015941;28;20280;-89
2023/05/08 08:31:45;;;;;;;13.10;8.23;;;15.10;99.90;;;;;;5006284;28;20061;-88
2023/05/08 08:34:11;;;;;;;14.65;9.10;;;15.20;99.90;;;;;;5022122;28;20052;-89
2023/05/08 08:36:38;;;;;;;13.33;8.87;;;15.10;99.90;;;;;;5010282;28;20070;-88
2023/05/08 08:39:04;;;;;;;15.63;9.68;;;15.20;99.90;;;;;;5008807;28;20381;-88
2023/05/08 08:41:30;;;;;;;13.45;8.85;;;15.20;99.90;;;;;;5022174;28;20124;-89
2023/05/08 08:43:55;;;;;;;11.90;8.60;;;15.20;99.90;;;;;;5004375;28;20468;-89
2023/05/08 08:46:26;;;;;;;13.57;8.98;;;15.30;99.90;;;;;;5038283;22;20045;-89
2023/05/08 08:48:54;;;;;;;16.40;9.13;;;15.30;99.90;;;;;;5019288;28;20057;-88
2023/05/08 08:51:44;;;;;;;14.00;8.50;;;15.40;99.90;;;;;;5026556;28;20041;-88
2023/05/08 08:54:12;;;;;;;12.95;8.50;;;15.50;99.90;;;;;;5045430;28;20493;-88
2023/05/08 08:56:43;;;;;;;12.32;7.68;;;15.60;99.90;;;;;;5014512;28;20121;-88
2023/05/08 08:59:10;;;;;;;13.20;8.55;;;15.70;99.90;;;;;;5007208;28;20075;-88
2023/05/08 09:01:38;;;;;;;12.80;8.60;;;15.80;99.90;;;;;;5004789;28;20635;-89
2023/05/08 09:04:04;;;;;;;13.02;8.02;;;16.00;99.90;;;;;;5014697;28;20028;-89
2023/05/08 09:06:34;;;;;;;12.88;8.45;;;16.00;99.90;;;;;;4999805;28;20540;-89
2023/05/08 09:09:01;;;;;;;12.82;8.85;;;16.20;99.90;;;;;;5025245;28;20038;-89
2023/05/08 09:11:27;;;;;;;13.60;8.52;;;16.20;99.90;;;;;;5003497;28;20037;-88
2023/05/08 09:13:56;;;;;;;13.85;8.25;;;16.30;99.90;;;;;;5013877;28;20042;-88
2023/05/08 09:16:23;;;;;;;13.23;8.93;;;16.40;99.90;;;;;;5002027;28;20038;-89
2023/05/08 09:18:49;;;;;;;13.25;9.70;;;16.50;99.90;;;;;;5026052;28;20635;-88
2023/05/08 09:21:14;;;;;;;13.35;9.35;;;16.70;99.90;;;;;;4999144;28;20045;-88
2023/05/08 09:24:03;;;;;;;14.27;9.30;;;16.90;99.90;;;;;;5019826;28;20069;-88
2023/05/08 09:26:40;;;;;;;12.32;8.85;;;17.00;99.90;;;;;;5016594;28;20096;-89
2023/05/08 09:29:23;;;;;;;13.88;9.00;;;17.20;99.90;;;;;;4994676;28;20034;-89
2023/05/08 09:31:50;;;;;;;13.05;9.43;;;17.40;99.90;;;;;;5015709;28;20053;-88
2023/05/08 09:34:26;;;;;;;14.60;9.30;;;17.40;99.90;;;;;;5016288;28;20085;-88
2023/05/08 09:37:04;;;;;;;16.50;10.77;;;17.50;99.90;;;;;;5023873;28;20477;-88
2023/05/08 09:39:30;;;;;;;13.85;9.23;;;17.50;99.90;;;;;;5020345;28;20279;-88
2023/05/08 09:42:05;;;;;;;14.07;9.65;;;17.60;99.90;;;;;;5017870;28;20414;-88
2023/05/08 09:44:52;;;;;;;14.32;9.85;;;17.60;99.90;;;;;;5018024;28;20044;-88
2023/05/08 09:47:20;;;;;;;16.15;9.98;;;17.70;99.90;;;;;;5001731;28;20198;-88
2023/05/08 09:50:06;;;;;;;14.48;9.68;;;17.80;99.90;;;;;;5015418;28;20045;-89
2023/05/08 09:52:33;;;;;;;12.48;9.02;;;17.80;99.90;;;;;;5012263;28;20498;-88
2023/05/08 09:55:02;;;;;;;16.55;9.55;;;17.80;99.90;;;;;;5005490;28;20090;-88
2023/05/08 09:57:29;;;;;;;16.20;9.70;;;17.90;99.90;;;;;;5019250;28;20078;-88
2023/05/08 10:00:05;;;;;;;14.20;9.80;;;18.00;99.90;;;;;;5003335;28;20087;-89
2023/05/08 10:03:06;;;;;;;14.70;9.95;;;18.10;99.90;;;;;;5021303;28;20045;-88
2023/05/08 10:05:35;;;;;;;14.05;9.52;;;18.10;99.90;;;;;;5007457;28;20049;-89
2023/05/08 10:08:22;;;;;;;16.63;10.82;;;18.20;99.90;;;;;;5014905;28;20049;-89
2023/05/08 10:10:48;;;;;;;15.43;9.43;;;18.30;99.90;;;;;;5019206;28;20037;-88
2023/05/08 10:13:13;;;;;;;13.52;9.70;;;18.40;99.90;;;;;;5005843;28;20053;-89
2023/05/08 10:18:08;;;;;;;13.70;9.63;;;18.70;99.90;;;;;;5014414;28;20038;-73
2023/05/08 10:20:37;;;;;;;13.57;9.35;;;18.80;99.90;;;;;;5022920;28;20471;-73
2023/05/08 10:23:10;;;;;;;17.33;9.98;;;18.90;99.90;;;;;;5017550;28;20422;-73
2023/05/08 10:25:44;;;;;;;13.52;9.80;;;18.90;99.90;;;;;;5024434;28;20124;-73
2023/05/08 10:28:22;;;;;;;14.32;9.52;;;19.10;99.90;;;;;;5016130;28;20157;-73
2023/05/08 10:30:49;;;;;;;15.68;10.43;;;19.20;99.90;;;;;;5018210;28;20505;-73
2023/05/08 10:33:22;;;;;;;13.95;9.60;;;19.30;99.90;;;;;;5012769;28;20133;-73
2023/05/08 10:35:48;;;;;;;14.88;10.27;;;19.30;99.90;;;;;;5016098;28;20053;-73
2023/05/08 10:38:15;;;;;;;15.07;9.77;;;19.40;99.90;;;;;;5008637;28;20487;-73
2023/05/08 10:40:41;;;;;;;14.07;9.93;;;19.40;99.90;;;;;;5012700;28;20076;-73
2023/05/08 10:43:08;;;;;;;13.30;9.40;;;19.60;99.90;;;;;;5007952;28;20041;-73
2023/05/08 10:45:35;;;;;;;12.77;9.05;;;19.60;99.90;;;;;;5010633;28;20305;-73
2023/05/08 10:48:18;;;;;;;16.25;10.18;;;19.70;99.90;;;;;;5002758;28;20121;-74
2023/05/08 10:50:58;;;;;;;16.05;10.55;;;19.70;99.90;;;;;;5009856;28;20041;-73
2023/05/08 10:53:37;;;;;;;12.98;8.65;;;19.80;99.90;;;;;;5025700;28;20115;-73
2023/05/08 10:56:03;;;;;;;13.32;9.27;;;19.90;99.90;;;;;;5005284;28;20443;-73
2023/05/08 10:58:31;;;;;;;12.05;8.95;;;20.00;99.90;;;;;;5019179;28;20042;-73
2023/05/08 11:00:59;;;;;;;12.40;8.63;;;20.10;99.90;;;;;;5009594;28;20056;-73
2023/05/08 11:03:29;;;;;;;14.25;9.25;;;20.20;99.90;;;;;;5021211;28;20034;-73
2023/05/08 11:05:57;;;;;;;15.85;9.00;;;20.40;99.90;;;;;;5024560;28;20474;-73
2023/05/08 11:08:26;;;;;;;12.23;8.85;;;20.50;99.90;;;;;;5034702;28;20045;-73
2023/05/08 11:10:59;;;;;;;16.08;9.20;;;20.60;99.90;;;;;;5022707;28;20079;-73
2023/05/08 11:13:36;;;;;;;12.55;9.30;;;20.80;99.90;;;;;;5020009;28;20042;-73
2023/05/08 11:16:03;;;;;;;14.15;9.23;;;20.80;99.90;;;;;;5013181;28;20053;-73
2023/05/08 11:18:29;;;;;;;13.85;9.35;;;20.90;99.90;;;;;;5009678;28;20045;-73
2023/05/08 11:21:02;;;;;;;12.02;8.95;;;20.90;99.90;;;;;;5020248;28;20368;-73
2023/05/08 11:23:32;;;;;;;13.55;9.70;;;21.10;99.90;;;;;;5003087;28;20132;-73
2023/05/08 11:26:01;;;;;;;12.13;8.27;;;21.20;99.90;;;;;;5009943;28;20128;-73
2023/05/08 11:28:31;;;;;;;13.07;8.15;;;21.20;99.90;;;;;;5013684;28;20554;-73
2023/05/08 11:31:03;;;;;;;14.43;9.85;;;21.30;99.90;;;;;;5018649;28;20309;-73
2023/05/08 11:33:30;;;;;;;12.60;8.85;;;21.50;99.90;;;;;;5012812;28;20502;-73
2023/05/08 11:36:10;;;;;;;13.25;8.88;;;21.50;99.90;;;;;;5009157;28;20163;-73
2023/05/08 11:38:37;;;;;;;14.25;8.85;;;21.50;99.90;;;;;;5008841;28;20045;-73
2023/05/08 11:41:23;;;;;;;13.52;9.45;;;21.40;99.90;;;;;;5018624;28;20089;-73
2023/05/08 11:44:03;;;;;;;12.27;8.38;;;21.40;99.90;;;;;;5005929;28;20073;-73
2023/05/08 11:46:50;;;;;;;12.35;8.38;;;21.30;99.90;;;;;;5012264;28;20219;-74
2023/05/08 11:49:19;;;;;;;11.25;8.10;;;21.20;99.90;;;;;;5020243;28;20608;-73
2023/05/08 11:51:47;;;;;;;14.00;9.32;;;21.20;99.90;;;;;;5016627;28;20095;-73
2023/05/08 11:54:16;;;;;;;12.13;9.27;;;21.10;99.90;;;;;;5004510;28;20153;-73
2023/05/08 11:56:42;;;;;;;16.20;9.57;;;21.10;99.90;;;;;;5023978;28;20112;-73
2023/05/08 11:59:08;;;;;;;;;;;21.10;99.90;;;;;;5011396;28;20120;-73
2023/05/08 12:01:34;;;;;;;14.25;9.70;;;21.00;99.90;;;;;;5016275;28;19952;-73
2023/05/08 12:04:08;;;;;;;13.50;9.77;;;20.90;99.90;;;;;;5012553;28;20398;-73
2023/05/08 12:06:39;;;;;;;15.55;9.18;;;20.90;99.90;;;;;;5012624;28;20113;-73
2023/05/08 12:09:17;;;;;;;17.25;9.95;;;20.90;99.90;;;;;;5017764;28;20105;-73
2023/05/08 12:11:44;;;;;;;14.98;9.70;;;20.80;99.90;;;;;;5017849;28;20446;-73
2023/05/08 12:14:15;;;;;;;15.65;10.05;;;20.80;99.90;;;;;;5017343;28;20068;-73
2023/05/08 12:16:41;;;;;;;14.95;9.93;;;20.80;99.90;;;;;;5017771;28;20045;-73
2023/05/08 12:19:12;;;;;;;13.93;9.27;;;20.80;99.90;;;;;;5012695;28;20113;-73
2023/05/08 12:21:37;;;;;;;16.15;9.23;;;20.80;99.90;;;;;;5014183;28;20042;-73
2023/05/08 12:24:10;;;;;;;13.90;9.75;;;20.90;99.90;;;;;;5007630;28;20037;-73
2023/05/08 12:26:37;;;;;;;13.52;9.52;;;20.80;99.90;;;;;;5009849;28;20046;-73
2023/05/08 12:29:08;;;;;;;13.77;9.88;;;20.90;99.90;;;;;;5042823;22;20056;-70
2023/05/08 12:31:35;;;;;;;18.58;10.68;;;20.90;99.90;;;;;;5031282;28;20115;-70
2023/05/08 12:34:03;;;;;;;14.40;10.30;;;20.80;99.90;;;;;;5025148;28;20120;-70
2023/05/08 12:36:36;;;;;;;19.65;10.75;;;20.80;99.90;;;;;;5023188;28;20033;-71
2023/05/08 12:39:12;;;;;;;16.85;10.15;;;20.90;99.90;;;;;;5017662;28;20049;-70
2023/05/08 12:41:51;;;;;;;13.82;9.98;;;20.90;99.90;;;;;;5020796;28;20226;-70
2023/05/08 12:44:24;;;;;;;16.65;10.05;;;20.90;99.90;;;;;;5028151;28;21245;-70
2023/05/08 12:46:57;;;;;;;15.35;10.32;;;21.00;99.90;;;;;;5019837;28;20530;-70
2023/05/08 12:49:30;;;;;;;15.98;10.52;;;21.00;99.90;;;;;;5017748;28;20144;-70
2023/05/08 12:52:03;;;;;;;15.07;9.98;;;21.00;99.90;;;;;;5000102;28;20072;-70
2023/05/08 12:54:33;;;;;;;13.48;9.93;;;21.00;99.90;;;;;;5017977;28;20255;-70